sensor_id;sensor_type;location;lat;lon;timestamp;P1;durP1;ratioP1;P2;durP2;ratioP2
64959;SDS011;51487;52.266;10.542;2023-03-03T00:01:23;9.75;;;7.22;;
64959;SDS011;51487;52.266;10.542;2023-03-03T00:03:52;12.75;;;7.38;;
64959;SDS011;51487;52.266;10.542;2023-03-03T00:06:18;13.90;;;7.38;;
64959;SDS011;51487;52.266;10.542;2023-03-03T00:08:45;17.63;;;7.05;;
64959;SDS011;51487;52.266;10.542;2023-03-03T00:11:11;11.07;;;7.53;;
64959;SDS011;51487;52.266;10.542;2023-03-03T00:13:43;11.77;;;7.35;;
64959;SDS011;51487;52.266;10.542;2023-03-03T00:16:21;11.82;;;8.00;;
64959;SDS011;51487;52.266;10.542;2023-03-03T00:18:52;13.35;;;7.90;;
64959;SDS011;51487;52.266;10.542;2023-03-03T00:24:17;9.45;;;6.82;;
64959;SDS011;51487;52.266;10.542;2023-03-03T00:26:50;10.20;;;7.40;;
64959;SDS011;51487;52.266;10.542;2023-03-03T00:34:39;11.63;;;7.15;;
64959;SDS011;51487;52.266;10.542;2023-03-03T00:37:16;11.57;;;7.65;;
64959;SDS011;51487;52.266;10.542;2023-03-03T00:39:53;20.48;;;8.70;;
64959;SDS011;51487;52.266;10.542;2023-03-03T00:42:26;13.85;;;8.13;;
64959;SDS011;51487;52.266;10.542;2023-03-03T00:44:55;15.15;;;8.55;;
64959;SDS011;51487;52.266;10.542;2023-03-03T00:47:38;13.20;;;9.05;;
64959;SDS011;51487;52.266;10.542;2023-03-03T00:52:37;12.68;;;8.07;;
64959;SDS011;51487;52.266;10.542;2023-03-03T00:55:11;12.50;;;8.02;;
64959;SDS011;51487;52.266;10.542;2023-03-03T00:57:37;12.70;;;7.65;;
64959;SDS011;51487;52.266;10.542;2023-03-03T01:00:03;12.43;;;8.32;;
64959;SDS011;51487;52.266;10.542;2023-03-03T01:02:29;16.80;;;8.13;;
64959;SDS011;51487;52.266;10.542;2023-03-03T01:04:55;13.27;;;8.43;;
64959;SDS011;51487;52.266;10.542;2023-03-03T01:07:21;14.60;;;9.25;;
64959;SDS011;51487;52.266;10.542;2023-03-03T01:09:47;16.15;;;8.98;;
64959;SDS011;51487;52.266;10.542;2023-03-03T01:12:15;13.95;;;9.52;;
64959;SDS011;51487;52.266;10.542;2023-03-03T01:14:41;15.43;;;9.80;;
64959;SDS011;51487;52.266;10.542;2023-03-03T01:17:09;14.43;;;8.95;;
64959;SDS011;51487;52.266;10.542;2023-03-03T01:19:34;18.05;;;10.15;;
64959;SDS011;51487;52.266;10.542;2023-03-03T01:22:00;15.30;;;10.38;;
64959;SDS011;51487;52.266;10.542;2023-03-03T01:24:28;16.42;;;9.68;;
64959;SDS011;51487;52.266;10.542;2023-03-03T01:26:53;17.40;;;9.75;;
64959;SDS011;51487;52.266;10.542;2023-03-03T01:29:19;17.55;;;9.23;;
64959;SDS011;51487;52.266;10.542;2023-03-03T01:31:44;20.58;;;10.50;;
64959;SDS011;51487;52.266;10.542;2023-03-03T01:34:10;16.60;;;10.70;;
64959;SDS011;51487;52.266;10.542;2023-03-03T01:36:35;19.55;;;11.20;;
64959;SDS011;51487;52.266;10.542;2023-03-03T01:39:01;14.85;;;10.32;;
64959;SDS011;51487;52.266;10.542;2023-03-03T01:41:28;20.52;;;10.05;;
64959;SDS011;51487;52.266;10.542;2023-03-03T01:43:58;20.83;;;10.50;;
64959;SDS011;51487;52.266;10.542;2023-03-03T01:49:14;15.63;;;9.68;;
64959;SDS011;51487;52.266;10.542;2023-03-03T01:51:54;18.50;;;9.88;;
64959;SDS011;51487;52.266;10.542;2023-03-03T01:54:29;16.73;;;10.10;;
64959;SDS011;51487;52.266;10.542;2023-03-03T01:57:03;21.52;;;10.40;;
64959;SDS011;51487;52.266;10.542;2023-03-03T01:59:35;26.70;;;10.38;;
64959;SDS011;51487;52.266;10.542;2023-03-03T02:02:06;34.35;;;11.40;;
64959;SDS011;51487;52.266;10.542;2023-03-03T02:04:33;26.08;;;11.80;;
64959;SDS011;51487;52.266;10.542;2023-03-03T02:07:04;21.85;;;11.25;;
64959;SDS011;51487;52.266;10.542;2023-03-03T02:12:32;20.92;;;11.63;;
64959;SDS011;51487;52.266;10.542;2023-03-03T02:15:16;23.92;;;11.00;;
64959;SDS011;51487;52.266;10.542;2023-03-03T02:17:53;21.02;;;11.05;;
64959;SDS011;51487;52.266;10.542;2023-03-03T02:26:08;18.83;;;11.07;;
64959;SDS011;51487;52.266;10.542;2023-03-03T02:28:40;16.40;;;10.75;;
64959;SDS011;51487;52.266;10.542;2023-03-03T02:31:08;18.08;;;10.77;;
64959;SDS011;51487;52.266;10.542;2023-03-03T02:33:42;18.33;;;10.15;;
64959;SDS011;51487;52.266;10.542;2023-03-03T02:36:14;18.73;;;10.40;;
64959;SDS011;51487;52.266;10.542;2023-03-03T02:41:32;19.85;;;10.93;;
64959;SDS011;51487;52.266;10.542;2023-03-03T02:44:12;18.95;;;11.05;;
64959;SDS011;51487;52.266;10.542;2023-03-03T02:46:43;19.60;;;11.20;;
64959;SDS011;51487;52.266;10.542;2023-03-03T02:49:12;17.30;;;9.88;;
64959;SDS011;51487;52.266;10.542;2023-03-03T02:51:42;17.40;;;10.27;;
64959;SDS011;51487;52.266;10.542;2023-03-03T02:54:09;16.70;;;10.10;;
64959;SDS011;51487;52.266;10.542;2023-03-03T02:56:37;18.17;;;10.88;;
64959;SDS011;51487;52.266;10.542;2023-03-03T02:59:03;17.15;;;10.45;;
64959;SDS011;51487;52.266;10.542;2023-03-03T03:01:30;19.75;;;9.98;;
64959;SDS011;51487;52.266;10.542;2023-03-03T03:04:00;18.08;;;10.63;;
64959;SDS011;51487;52.266;10.542;2023-03-03T03:06:48;17.05;;;9.73;;
64959;SDS011;51487;52.266;10.542;2023-03-03T03:09:15;17.77;;;10.55;;
64959;SDS011;51487;52.266;10.542;2023-03-03T03:11:42;20.15;;;10.98;;
64959;SDS011;51487;52.266;10.542;2023-03-03T03:14:08;16.80;;;9.77;;
64959;SDS011;51487;52.266;10.542;2023-03-03T03:16:37;16.20;;;10.48;;
64959;SDS011;51487;52.266;10.542;2023-03-03T03:19:04;17.08;;;10.30;;
64959;SDS011;51487;52.266;10.542;2023-03-03T03:21:31;19.90;;;11.15;;
64959;SDS011;51487;52.266;10.542;2023-03-03T03:23:57;18.85;;;10.35;;
64959;SDS011;51487;52.266;10.542;2023-03-03T03:26:24;18.13;;;10.82;;
64959;SDS011;51487;52.266;10.542;2023-03-03T03:28:50;17.20;;;10.20;;
64959;SDS011;51487;52.266;10.542;2023-03-03T03:31:16;17.92;;;10.90;;
64959;SDS011;51487;52.266;10.542;2023-03-03T03:33:44;16.90;;;10.00;;
64959;SDS011;51487;52.266;10.542;2023-03-03T03:36:10;16.35;;;10.20;;
64959;SDS011;51487;52.266;10.542;2023-03-03T03:38:36;19.08;;;10.38;;
64959;SDS011;51487;52.266;10.542;2023-03-03T03:41:02;19.48;;;10.43;;
64959;SDS011;51487;52.266;10.542;2023-03-03T03:43:29;15.75;;;9.80;;
64959;SDS011;51487;52.266;10.542;2023-03-03T03:45:55;16.85;;;9.85;;
64959;SDS011;51487;52.266;10.542;2023-03-03T03:48:21;15.70;;;9.40;;
64959;SDS011;51487;52.266;10.542;2023-03-03T03:50:46;14.73;;;8.77;;
64959;SDS011;51487;52.266;10.542;2023-03-03T03:53:13;15.95;;;9.85;;
64959;SDS011;51487;52.266;10.542;2023-03-03T03:55:40;17.10;;;9.60;;
64959;SDS011;51487;52.266;10.542;2023-03-03T03:58:05;16.05;;;9.80;;
64959;SDS011;51487;52.266;10.542;2023-03-03T04:00:31;21.10;;;10.18;;
64959;SDS011;51487;52.266;10.542;2023-03-03T04:02:56;16.27;;;10.50;;
64959;SDS011;51487;52.266;10.542;2023-03-03T04:05:22;18.77;;;10.07;;
64959;SDS011;51487;52.266;10.542;2023-03-03T04:07:48;19.90;;;10.95;;
64959;SDS011;51487;52.266;10.542;2023-03-03T04:10:13;17.33;;;10.90;;
64959;SDS011;51487;52.266;10.542;2023-03-03T04:12:39;16.52;;;9.75;;
64959;SDS011;51487;52.266;10.542;2023-03-03T04:15:05;16.27;;;9.65;;
64959;SDS011;51487;52.266;10.542;2023-03-03T04:17:34;18.95;;;9.85;;
64959;SDS011;51487;52.266;10.542;2023-03-03T04:20:00;21.05;;;10.95;;
64959;SDS011;51487;52.266;10.542;2023-03-03T04:22:27;15.82;;;9.18;;
64959;SDS011;51487;52.266;10.542;2023-03-03T04:24:58;16.38;;;9.88;;
64959;SDS011;51487;52.266;10.542;2023-03-03T04:27:26;18.00;;;10.00;;
64959;SDS011;51487;52.266;10.542;2023-03-03T04:29:51;16.77;;;8.48;;
64959;SDS011;51487;52.266;10.542;2023-03-03T04:32:17;15.30;;;9.73;;
64959;SDS011;51487;52.266;10.542;2023-03-03T04:34:43;16.38;;;9.77;;
64959;SDS011;51487;52.266;10.542;2023-03-03T04:37:08;17.95;;;9.45;;
64959;SDS011;51487;52.266;10.542;2023-03-03T04:39:34;20.52;;;10.60;;
64959;SDS011;51487;52.266;10.542;2023-03-03T04:42:00;20.15;;;10.70;;
64959;SDS011;51487;52.266;10.542;2023-03-03T04:44:25;18.70;;;10.40;;
64959;SDS011;51487;52.266;10.542;2023-03-03T04:46:51;18.10;;;10.13;;
64959;SDS011;51487;52.266;10.542;2023-03-03T04:49:16;18.60;;;10.18;;
64959;SDS011;51487;52.266;10.542;2023-03-03T04:51:42;19.30;;;11.02;;
64959;SDS011;51487;52.266;10.542;2023-03-03T04:54:07;20.67;;;11.68;;
64959;SDS011;51487;52.266;10.542;2023-03-03T04:56:33;21.67;;;11.82;;
64959;SDS011;51487;52.266;10.542;2023-03-03T04:59:00;20.23;;;11.05;;
64959;SDS011;51487;52.266;10.542;2023-03-03T05:01:25;19.83;;;11.10;;
64959;SDS011;51487;52.266;10.542;2023-03-03T05:03:51;22.85;;;11.82;;
64959;SDS011;51487;52.266;10.542;2023-03-03T05:06:16;20.23;;;11.57;;
64959;SDS011;51487;52.266;10.542;2023-03-03T05:08:43;18.20;;;10.75;;
64959;SDS011;51487;52.266;10.542;2023-03-03T05:11:09;17.88;;;11.23;;
64959;SDS011;51487;52.266;10.542;2023-03-03T05:13:35;18.65;;;10.20;;
64959;SDS011;51487;52.266;10.542;2023-03-03T05:16:01;15.82;;;9.32;;
64959;SDS011;51487;52.266;10.542;2023-03-03T05:18:26;19.10;;;10.40;;
64959;SDS011;51487;52.266;10.542;2023-03-03T05:20:52;19.02;;;10.05;;
64959;SDS011;51487;52.266;10.542;2023-03-03T05:23:19;20.58;;;10.52;;
64959;SDS011;51487;52.266;10.542;2023-03-03T05:25:48;17.75;;;10.18;;
64959;SDS011;51487;52.266;10.542;2023-03-03T05:28:14;16.65;;;9.45;;
64959;SDS011;51487;52.266;10.542;2023-03-03T05:30:41;16.90;;;10.48;;
64959;SDS011;51487;52.266;10.542;2023-03-03T05:33:07;19.27;;;10.40;;
64959;SDS011;51487;52.266;10.542;2023-03-03T05:35:36;21.00;;;11.05;;
64959;SDS011;51487;52.266;10.542;2023-03-03T05:38:02;20.63;;;10.05;;
64959;SDS011;51487;52.266;10.542;2023-03-03T05:40:27;20.85;;;11.10;;
64959;SDS011;51487;52.266;10.542;2023-03-03T05:42:53;17.95;;;10.77;;
64959;SDS011;51487;52.266;10.542;2023-03-03T05:45:19;21.48;;;11.88;;
64959;SDS011;51487;52.266;10.542;2023-03-03T05:47:45;19.48;;;10.40;;
64959;SDS011;51487;52.266;10.542;2023-03-03T05:50:12;16.45;;;9.02;;
64959;SDS011;51487;52.266;10.542;2023-03-03T05:52:38;18.20;;;10.45;;
64959;SDS011;51487;52.266;10.542;2023-03-03T05:55:04;24.08;;;11.80;;
64959;SDS011;51487;52.266;10.542;2023-03-03T05:57:30;22.35;;;11.32;;
64959;SDS011;51487;52.266;10.542;2023-03-03T05:59:55;17.63;;;10.30;;
64959;SDS011;51487;52.266;10.542;2023-03-03T06:02:21;21.15;;;11.05;;
64959;SDS011;51487;52.266;10.542;2023-03-03T06:04:47;19.38;;;11.27;;
64959;SDS011;51487;52.266;10.542;2023-03-03T06:07:12;20.55;;;10.63;;
64959;SDS011;51487;52.266;10.542;2023-03-03T06:09:38;19.33;;;11.30;;
64959;SDS011;51487;52.266;10.542;2023-03-03T06:12:03;20.98;;;11.02;;
64959;SDS011;51487;52.266;10.542;2023-03-03T06:14:29;21.50;;;11.45;;
64959;SDS011;51487;52.266;10.542;2023-03-03T06:16:55;20.70;;;11.23;;
64959;SDS011;51487;52.266;10.542;2023-03-03T06:19:22;21.67;;;11.40;;
64959;SDS011;51487;52.266;10.542;2023-03-03T06:21:47;21.20;;;11.48;;
64959;SDS011;51487;52.266;10.542;2023-03-03T06:24:13;20.73;;;11.48;;
64959;SDS011;51487;52.266;10.542;2023-03-03T06:26:39;21.70;;;11.85;;
64959;SDS011;51487;52.266;10.542;2023-03-03T06:29:04;19.92;;;11.75;;
64959;SDS011;51487;52.266;10.542;2023-03-03T06:31:30;18.27;;;11.15;;
64959;SDS011;51487;52.266;10.542;2023-03-03T06:33:55;22.50;;;11.32;;
64959;SDS011;51487;52.266;10.542;2023-03-03T06:36:21;17.98;;;11.35;;
64959;SDS011;51487;52.266;10.542;2023-03-03T06:38:47;24.00;;;12.90;;
64959;SDS011;51487;52.266;10.542;2023-03-03T06:41:13;21.80;;;12.25;;
64959;SDS011;51487;52.266;10.542;2023-03-03T06:43:38;24.20;;;12.55;;
64959;SDS011;51487;52.266;10.542;2023-03-03T06:46:04;21.60;;;12.45;;
64959;SDS011;51487;52.266;10.542;2023-03-03T06:48:30;23.63;;;13.93;;
64959;SDS011;51487;52.266;10.542;2023-03-03T06:51:00;23.10;;;12.95;;
64959;SDS011;51487;52.266;10.542;2023-03-03T06:53:35;24.77;;;12.98;;
64959;SDS011;51487;52.266;10.542;2023-03-03T06:56:01;23.75;;;13.95;;
64959;SDS011;51487;52.266;10.542;2023-03-03T06:58:26;23.70;;;13.13;;
64959;SDS011;51487;52.266;10.542;2023-03-03T07:00:57;22.75;;;12.40;;
64959;SDS011;51487;52.266;10.542;2023-03-03T07:03:26;21.65;;;12.13;;
64959;SDS011;51487;52.266;10.542;2023-03-03T07:05:57;24.58;;;12.85;;
64959;SDS011;51487;52.266;10.542;2023-03-03T07:08:24;19.83;;;11.02;;
64959;SDS011;51487;52.266;10.542;2023-03-03T07:10:54;22.90;;;11.65;;
64959;SDS011;51487;52.266;10.542;2023-03-03T07:15:51;24.38;;;11.88;;
64959;SDS011;51487;52.266;10.542;2023-03-03T07:23:57;21.33;;;11.65;;
64959;SDS011;51487;52.266;10.542;2023-03-03T07:26:30;21.95;;;11.43;;
64959;SDS011;51487;52.266;10.542;2023-03-03T07:28:57;22.20;;;12.20;;
64959;SDS011;51487;52.266;10.542;2023-03-03T07:31:46;22.05;;;11.25;;
64959;SDS011;51487;52.266;10.542;2023-03-03T07:34:20;22.80;;;12.55;;
64959;SDS011;51487;52.266;10.542;2023-03-03T07:37:00;25.27;;;13.52;;
64959;SDS011;51487;52.266;10.542;2023-03-03T07:39:34;27.75;;;12.60;;
64959;SDS011;51487;52.266;10.542;2023-03-03T07:44:58;20.10;;;10.90;;
64959;SDS011;51487;52.266;10.542;2023-03-03T07:47:33;22.00;;;11.40;;
64959;SDS011;51487;52.266;10.542;2023-03-03T07:50:09;20.13;;;11.52;;
64959;SDS011;51487;52.266;10.542;2023-03-03T07:52:47;21.20;;;12.07;;
64959;SDS011;51487;52.266;10.542;2023-03-03T07:55:35;20.42;;;12.02;;
64959;SDS011;51487;52.266;10.542;2023-03-03T08:01:21;23.42;;;12.90;;
64959;SDS011;51487;52.266;10.542;2023-03-03T08:04:18;22.35;;;11.80;;
64959;SDS011;51487;52.266;10.542;2023-03-03T08:06:59;21.83;;;11.98;;
64959;SDS011;51487;52.266;10.542;2023-03-03T08:09:43;20.50;;;11.77;;
64959;SDS011;51487;52.266;10.542;2023-03-03T08:12:22;21.88;;;13.25;;
64959;SDS011;51487;52.266;10.542;2023-03-03T08:14:55;21.85;;;12.68;;
64959;SDS011;51487;52.266;10.542;2023-03-03T08:17:38;20.52;;;12.18;;
64959;SDS011;51487;52.266;10.542;2023-03-03T08:22:59;23.23;;;13.80;;
64959;SDS011;51487;52.266;10.542;2023-03-03T08:25:25;24.33;;;13.30;;
64959;SDS011;51487;52.266;10.542;2023-03-03T08:27:50;24.35;;;13.07;;
64959;SDS011;51487;52.266;10.542;2023-03-03T08:30:16;25.75;;;13.77;;
64959;SDS011;51487;52.266;10.542;2023-03-03T08:32:42;24.98;;;12.98;;
64959;SDS011;51487;52.266;10.542;2023-03-03T08:35:07;22.98;;;12.85;;
64959;SDS011;51487;52.266;10.542;2023-03-03T08:37:33;20.35;;;10.80;;
64959;SDS011;51487;52.266;10.542;2023-03-03T08:39:59;19.20;;;10.48;;
64959;SDS011;51487;52.266;10.542;2023-03-03T08:42:24;19.48;;;11.02;;
64959;SDS011;51487;52.266;10.542;2023-03-03T08:44:50;22.25;;;11.95;;
64959;SDS011;51487;52.266;10.542;2023-03-03T08:47:15;21.20;;;12.98;;
64959;SDS011;51487;52.266;10.542;2023-03-03T08:49:41;22.75;;;13.13;;
64959;SDS011;51487;52.266;10.542;2023-03-03T08:52:06;25.30;;;13.30;;
64959;SDS011;51487;52.266;10.542;2023-03-03T08:54:32;27.33;;;13.70;;
64959;SDS011;51487;52.266;10.542;2023-03-03T08:56:57;23.63;;;12.88;;
64959;SDS011;51487;52.266;10.542;2023-03-03T08:59:23;22.45;;;12.40;;
64959;SDS011;51487;52.266;10.542;2023-03-03T09:01:48;20.45;;;11.30;;
64959;SDS011;51487;52.266;10.542;2023-03-03T09:04:14;22.13;;;13.63;;
64959;SDS011;51487;52.266;10.542;2023-03-03T09:06:39;20.83;;;11.70;;
64959;SDS011;51487;52.266;10.542;2023-03-03T09:09:05;23.42;;;13.02;;
64959;SDS011;51487;52.266;10.542;2023-03-03T09:11:31;25.60;;;12.68;;
64959;SDS011;51487;52.266;10.542;2023-03-03T09:14:14;23.98;;;13.23;;
64959;SDS011;51487;52.266;10.542;2023-03-03T09:16:49;23.60;;;12.93;;
64959;SDS011;51487;52.266;10.542;2023-03-03T09:19:18;22.88;;;12.77;;
64959;SDS011;51487;52.266;10.542;2023-03-03T09:24:51;23.33;;;14.30;;
64959;SDS011;51487;52.266;10.542;2023-03-03T09:27:30;23.85;;;12.48;;
64959;SDS011;51487;52.266;10.542;2023-03-03T09:30:02;22.98;;;11.80;;
64959;SDS011;51487;52.266;10.542;2023-03-03T09:32:51;19.50;;;11.00;;
64959;SDS011;51487;52.266;10.542;2023-03-03T09:35:36;20.88;;;11.85;;
64959;SDS011;51487;52.266;10.542;2023-03-03T09:43:36;21.52;;;11.15;;
64959;SDS011;51487;52.266;10.542;2023-03-03T10:06:39;16.50;;;9.57;;
64959;SDS011;51487;52.266;10.542;2023-03-03T10:11:57;18.05;;;10.18;;
64959;SDS011;51487;52.266;10.542;2023-03-03T10:14:50;18.75;;;11.10;;
64959;SDS011;51487;52.266;10.542;2023-03-03T10:25:57;22.15;;;11.05;;
64959;SDS011;51487;52.266;10.542;2023-03-03T10:28:53;18.73;;;10.93;;
64959;SDS011;51487;52.266;10.542;2023-03-03T10:31:46;21.05;;;11.32;;
64959;SDS011;51487;52.266;10.542;2023-03-03T10:39:49;20.25;;;11.43;;
64959;SDS011;51487;52.266;10.542;2023-03-03T10:46:38;24.63;;;12.77;;
64959;SDS011;51487;52.266;10.542;2023-03-03T11:06:28;25.23;;;14.85;;
64959;SDS011;51487;52.266;10.542;2023-03-03T11:09:36;26.73;;;14.25;;
64959;SDS011;51487;52.266;10.542;2023-03-03T11:16:14;32.92;;;17.67;;
64959;SDS011;51487;52.266;10.542;2023-03-03T11:18:57;24.73;;;14.25;;
64959;SDS011;51487;52.266;10.542;2023-03-03T11:39:22;19.92;;;12.75;;
64959;SDS011;51487;52.266;10.542;2023-03-03T11:47:17;18.15;;;11.48;;
64959;SDS011;51487;52.266;10.542;2023-03-03T11:53:03;18.60;;;11.63;;
64959;SDS011;51487;52.266;10.542;2023-03-03T11:55:47;16.63;;;11.10;;
64959;SDS011;51487;52.266;10.542;2023-03-03T11:58:24;17.80;;;10.23;;
64959;SDS011;51487;52.266;10.542;2023-03-03T12:01:21;16.80;;;10.73;;
64959;SDS011;51487;52.266;10.542;2023-03-03T12:22:50;16.17;;;10.43;;
64959;SDS011;51487;52.266;10.542;2023-03-03T12:25:19;14.70;;;9.48;;
64959;SDS011;51487;52.266;10.542;2023-03-03T12:28:16;16.88;;;10.60;;
64959;SDS011;51487;52.266;10.542;2023-03-03T12:34:09;13.18;;;9.23;;
64959;SDS011;51487;52.266;10.542;2023-03-03T12:45:26;17.08;;;10.77;;
64959;SDS011;51487;52.266;10.542;2023-03-03T12:48:26;16.05;;;10.75;;
64959;SDS011;51487;52.266;10.542;2023-03-03T12:51:20;21.40;;;11.35;;
64959;SDS011;51487;52.266;10.542;2023-03-03T12:54:13;21.63;;;12.57;;
64959;SDS011;51487;52.266;10.542;2023-03-03T12:59:52;24.60;;;13.07;;
64959;SDS011;51487;52.266;10.542;2023-03-03T13:02:47;21.48;;;13.25;;
64959;SDS011;51487;52.266;10.542;2023-03-03T13:05:33;20.42;;;13.02;;
64959;SDS011;51487;52.266;10.542;2023-03-03T13:20:29;21.60;;;13.18;;
64959;SDS011;51487;52.266;10.542;2023-03-03T13:23:30;23.67;;;13.63;;
64959;SDS011;51487;52.266;10.542;2023-03-03T13:32:07;21.42;;;13.35;;
64959;SDS011;51487;52.266;10.542;2023-03-03T13:37:38;21.25;;;12.40;;
64959;SDS011;51487;52.266;10.542;2023-03-03T13:40:15;19.55;;;11.52;;
64959;SDS011;51487;52.266;10.542;2023-03-03T13:42:47;17.58;;;11.20;;
64959;SDS011;51487;52.266;10.542;2023-03-03T13:45:22;17.25;;;11.98;;
64959;SDS011;51487;52.266;10.542;2023-03-03T13:48:01;18.45;;;11.70;;
64959;SDS011;51487;52.266;10.542;2023-03-03T13:53:38;19.87;;;12.63;;
64959;SDS011;51487;52.266;10.542;2023-03-03T13:56:48;20.50;;;12.50;;
64959;SDS011;51487;52.266;10.542;2023-03-03T14:03:34;18.85;;;12.25;;
64959;SDS011;51487;52.266;10.542;2023-03-03T14:06:17;19.05;;;12.45;;
64959;SDS011;51487;52.266;10.542;2023-03-03T14:08:50;17.73;;;12.43;;
64959;SDS011;51487;52.266;10.542;2023-03-03T14:11:45;18.13;;;13.13;;
64959;SDS011;51487;52.266;10.542;2023-03-03T14:14:46;21.83;;;13.60;;
64959;SDS011;51487;52.266;10.542;2023-03-03T14:17:57;26.58;;;15.77;;
64959;SDS011;51487;52.266;10.542;2023-03-03T14:20:43;28.55;;;15.38;;
64959;SDS011;51487;52.266;10.542;2023-03-03T14:23:30;22.58;;;15.40;;
64959;SDS011;51487;52.266;10.542;2023-03-03T14:28:39;25.23;;;15.77;;
64959;SDS011;51487;52.266;10.542;2023-03-03T14:31:27;26.55;;;17.00;;
64959;SDS011;51487;52.266;10.542;2023-03-03T14:34:14;25.80;;;16.55;;
64959;SDS011;51487;52.266;10.542;2023-03-03T14:36:59;31.38;;;17.00;;
64959;SDS011;51487;52.266;10.542;2023-03-03T14:39:48;27.08;;;14.75;;
64959;SDS011;51487;52.266;10.542;2023-03-03T14:45:39;24.05;;;15.07;;
64959;SDS011;51487;52.266;10.542;2023-03-03T14:48:10;23.92;;;14.82;;
64959;SDS011;51487;52.266;10.542;2023-03-03T14:50:55;23.60;;;15.38;;
64959;SDS011;51487;52.266;10.542;2023-03-03T14:53:32;23.17;;;14.15;;
64959;SDS011;51487;52.266;10.542;2023-03-03T15:01:45;22.42;;;13.65;;
64959;SDS011;51487;52.266;10.542;2023-03-03T15:06:53;19.50;;;13.38;;
64959;SDS011;51487;52.266;10.542;2023-03-03T15:09:33;20.10;;;13.38;;
64959;SDS011;51487;52.266;10.542;2023-03-03T15:12:21;21.63;;;14.15;;
64959;SDS011;51487;52.266;10.542;2023-03-03T15:17:35;27.17;;;14.00;;
64959;SDS011;51487;52.266;10.542;2023-03-03T15:20:26;21.42;;;11.48;;
64959;SDS011;51487;52.266;10.542;2023-03-03T15:25:57;17.42;;;11.32;;
64959;SDS011;51487;52.266;10.542;2023-03-03T15:40:24;19.58;;;12.00;;
64959;SDS011;51487;52.266;10.542;2023-03-03T15:43:13;22.05;;;12.30;;
64959;SDS011;51487;52.266;10.542;2023-03-03T15:46:20;23.60;;;13.23;;
64959;SDS011;51487;52.266;10.542;2023-03-03T15:51:59;23.65;;;12.88;;
64959;SDS011;51487;52.266;10.542;2023-03-03T16:00:51;22.40;;;12.85;;
64959;SDS011;51487;52.266;10.542;2023-03-03T16:18:44;24.00;;;13.25;;
64959;SDS011;51487;52.266;10.542;2023-03-03T16:27:18;20.70;;;11.13;;
64959;SDS011;51487;52.266;10.542;2023-03-03T16:30:02;19.77;;;11.18;;
64959;SDS011;51487;52.266;10.542;2023-03-03T16:33:18;20.00;;;11.05;;
64959;SDS011;51487;52.266;10.542;2023-03-03T16:38:47;17.15;;;9.63;;
64959;SDS011;51487;52.266;10.542;2023-03-03T16:41:43;17.70;;;11.43;;
64959;SDS011;51487;52.266;10.542;2023-03-03T16:47:09;21.08;;;12.63;;
64959;SDS011;51487;52.266;10.542;2023-03-03T16:53:11;24.40;;;13.02;;
64959;SDS011;51487;52.266;10.542;2023-03-03T16:56:13;21.23;;;13.07;;
64959;SDS011;51487;52.266;10.542;2023-03-03T17:01:26;24.50;;;13.30;;
64959;SDS011;51487;52.266;10.542;2023-03-03T17:04:20;39.80;;;11.95;;
64959;SDS011;51487;52.266;10.542;2023-03-03T17:07:12;22.50;;;12.13;;
64959;SDS011;51487;52.266;10.542;2023-03-03T17:19:02;23.23;;;12.48;;
64959;SDS011;51487;52.266;10.542;2023-03-03T17:30:10;23.38;;;11.95;;
64959;SDS011;51487;52.266;10.542;2023-03-03T17:33:00;24.55;;;13.00;;
64959;SDS011;51487;52.266;10.542;2023-03-03T17:39:06;23.85;;;12.68;;
64959;SDS011;51487;52.266;10.542;2023-03-03T17:45:08;24.58;;;11.95;;
64959;SDS011;51487;52.266;10.542;2023-03-03T17:50:35;23.85;;;12.63;;
64959;SDS011;51487;52.266;10.542;2023-03-03T17:59:46;23.08;;;12.63;;
64959;SDS011;51487;52.266;10.542;2023-03-03T18:02:46;26.88;;;13.95;;
64959;SDS011;51487;52.266;10.542;2023-03-03T18:08:43;21.23;;;12.57;;
64959;SDS011;51487;52.266;10.542;2023-03-03T18:14:44;22.08;;;11.55;;
64959;SDS011;51487;52.266;10.542;2023-03-03T18:17:32;25.70;;;12.30;;
64959;SDS011;51487;52.266;10.542;2023-03-03T18:20:03;20.13;;;11.63;;
64959;SDS011;51487;52.266;10.542;2023-03-03T18:23:48;20.08;;;11.30;;
64959;SDS011;51487;52.266;10.542;2023-03-03T18:26:01;21.27;;;11.90;;
64959;SDS011;51487;52.266;10.542;2023-03-03T18:28:49;19.83;;;11.13;;
64959;SDS011;51487;52.266;10.542;2023-03-03T18:31:23;20.50;;;11.20;;
64959;SDS011;51487;52.266;10.542;2023-03-03T18:34:02;19.70;;;11.32;;
64959;SDS011;51487;52.266;10.542;2023-03-03T18:36:35;23.27;;;13.05;;
64959;SDS011;51487;52.266;10.542;2023-03-03T18:39:15;23.25;;;11.95;;
64959;SDS011;51487;52.266;10.542;2023-03-03T18:44:47;20.00;;;11.88;;
64959;SDS011;51487;52.266;10.542;2023-03-03T18:47:13;22.60;;;12.85;;
64959;SDS011;51487;52.266;10.542;2023-03-03T18:52:25;21.05;;;11.63;;
64959;SDS011;51487;52.266;10.542;2023-03-03T18:57:59;19.77;;;12.35;;
64959;SDS011;51487;52.266;10.542;2023-03-03T19:00:50;19.25;;;11.30;;
64959;SDS011;51487;52.266;10.542;2023-03-03T19:06:28;20.95;;;11.43;;
64959;SDS011;51487;52.266;10.542;2023-03-03T19:08:55;12.88;;;5.55;;
64959;SDS011;51487;52.266;10.542;2023-03-03T19:11:32;11.55;;;6.55;;
64959;SDS011;51487;52.266;10.542;2023-03-03T19:14:35;17.10;;;6.68;;
64959;SDS011;51487;52.266;10.542;2023-03-03T19:20:26;15.32;;;9.82;;
64959;SDS011;51487;52.266;10.542;2023-03-03T19:22:47;18.33;;;10.82;;
64959;SDS011;51487;52.266;10.542;2023-03-03T19:25:21;19.55;;;11.40;;
64959;SDS011;51487;52.266;10.542;2023-03-03T19:33:40;20.23;;;12.95;;
64959;SDS011;51487;52.266;10.542;2023-03-03T19:36:43;21.45;;;12.50;;
64959;SDS011;51487;52.266;10.542;2023-03-03T19:39:29;20.40;;;12.48;;
64959;SDS011;51487;52.266;10.542;2023-03-03T20:08:40;25.38;;;14.82;;
64959;SDS011;51487;52.266;10.542;2023-03-03T20:11:53;24.98;;;14.60;;
64959;SDS011;51487;52.266;10.542;2023-03-03T20:14:46;28.73;;;14.93;;
64959;SDS011;51487;52.266;10.542;2023-03-03T20:17:23;27.90;;;16.10;;
64959;SDS011;51487;52.266;10.542;2023-03-03T20:26:08;28.30;;;14.27;;
64959;SDS011;51487;52.266;10.542;2023-03-03T20:32:01;27.67;;;14.38;;
64959;SDS011;51487;52.266;10.542;2023-03-03T20:35:12;28.95;;;14.93;;
64959;SDS011;51487;52.266;10.542;2023-03-03T20:37:57;27.30;;;15.82;;
64959;SDS011;51487;52.266;10.542;2023-03-03T20:40:52;26.27;;;15.30;;
64959;SDS011;51487;52.266;10.542;2023-03-03T20:43:57;29.17;;;16.13;;
64959;SDS011;51487;52.266;10.542;2023-03-03T20:46:54;26.67;;;14.25;;
64959;SDS011;51487;52.266;10.542;2023-03-03T20:52:48;30.08;;;16.98;;
64959;SDS011;51487;52.266;10.542;2023-03-03T20:56:02;27.15;;;14.60;;
64959;SDS011;51487;52.266;10.542;2023-03-03T21:04:18;29.08;;;14.82;;
64959;SDS011;51487;52.266;10.542;2023-03-03T21:06:46;21.00;;;13.60;;
64959;SDS011;51487;52.266;10.542;2023-03-03T21:11:51;25.15;;;14.75;;
64959;SDS011;51487;52.266;10.542;2023-03-03T21:14:32;25.63;;;13.98;;
64959;SDS011;51487;52.266;10.542;2023-03-03T21:20:39;28.33;;;14.40;;